Time;durP1;ratioP1;P1;durP2;ratioP2;P2;SDS_P1;SDS_P2;PMS_P1;PMS_P2;Temp;Humidity;BMP_temperature;BMP_pressure;BME280_temperature;BME280_humidity;BME280_pressure;Samples;Min_cycle;Max_cycle;Signal;HPM_P1;HPM_P2
2022/09/28 05:03:46;;;;;;;1.38;0.30;;;9.60;99.90;;;;;;6235615;23;20039;-75
2022/09/28 05:06:35;;;;;;;3.60;0.50;;;9.50;99.90;;;;;;6254280;23;20034;-75
2022/09/28 05:09:04;;;;;;;1.83;0.47;;;9.50;99.90;;;;;;6220386;23;20018;-76
2022/09/28 05:11:30;;;;;;;1.23;0.30;;;9.50;99.90;;;;;;6252082;23;20004;-76
2022/09/28 05:14:20;;;;;;;2.78;0.70;;;9.50;99.90;;;;;;6255568;23;20023;-76
2022/09/28 05:16:53;;;;;;;1.75;0.63;;;9.50;99.90;;;;;;6228012;23;20063;-75
2022/09/28 05:19:24;;;;;;;3.65;0.80;;;9.50;99.90;;;;;;6265438;23;20016;-77
2022/09/28 05:21:56;;;;;;;4.22;2.10;;;9.50;99.90;;;;;;6227522;23;20313;-75
2022/09/28 05:24:41;;;;;;;2.72;1.02;;;9.40;99.90;;;;;;6254430;23;20004;-75
2022/09/28 05:40:08;;;;;;;3.88;1.00;;;9.50;99.90;;;;;;6192116;23;20007;-75
2022/09/28 06:09:22;;;;;;;2.08;0.50;;;9.60;99.90;;;;;;6116588;23;20025;-74
2022/09/28 06:12:06;;;;;;;2.63;0.60;;;9.50;99.90;;;;;;6180217;23;20044;-77
2022/09/28 06:24:14;;;;;;;1.73;0.50;;;9.50;99.90;;;;;;6252834;23;20068;-77
2022/09/28 06:26:42;;;;;;;2.58;0.70;;;9.50;99.90;;;;;;6233040;23;20012;-77
2022/09/28 06:29:16;;;;;;;2.70;0.70;;;9.60;99.90;;;;;;6254788;23;20012;-75
2022/09/28 06:31:46;;;;;;;3.05;0.75;;;9.60;99.90;;;;;;6261316;23;20023;-78
2022/09/28 06:34:13;;;;;;;4.93;1.10;;;9.70;99.90;;;;;;6232394;23;20000;-76
2022/09/28 06:36:39;;;;;;;4.47;0.98;;;9.70;99.90;;;;;;6263224;23;20023;-76
2022/09/28 06:39:15;;;;;;;3.45;0.90;;;9.80;99.90;;;;;;6240915;23;20015;-76
2022/09/28 06:42:11;;;;;;;2.35;0.82;;;9.90;99.90;;;;;;6245579;23;20025;-77
2022/09/28 06:45:24;;;;;;;2.30;0.93;;;10.00;99.90;;;;;;6263471;23;20071;-77
2022/09/28 06:48:13;;;;;;;5.93;1.40;;;10.10;99.90;;;;;;6237773;22;20012;-76
2022/09/28 06:50:46;;;;;;;3.15;1.00;;;10.10;99.90;;;;;;6260398;23;20015;-76
2022/09/28 06:53:31;;;;;;;3.42;1.42;;;10.10;99.90;;;;;;6257670;23;20027;-76
2022/09/28 06:56:27;;;;;;;5.80;1.13;;;10.20;99.90;;;;;;6229866;23;20008;-77
2022/09/28 06:58:58;;;;;;;2.92;0.90;;;10.30;99.90;;;;;;6259620;23;20004;-77
2022/09/28 07:01:47;;;;;;;2.67;0.80;;;10.30;99.90;;;;;;6264598;22;20012;-76
2022/09/28 07:04:32;;;;;;;4.10;1.10;;;10.30;99.90;;;;;;6285452;22;20018;-77
2022/09/28 07:07:26;;;;;;;4.03;1.00;;;10.30;99.90;;;;;;6261586;22;20018;-77
2022/09/28 07:10:18;;;;;;;3.67;1.00;;;10.30;99.90;;;;;;6260179;22;20038;-77
2022/09/28 07:20:25;;;;;;;3.85;1.00;;;10.50;99.90;;;;;;6280148;22;20324;-75
2022/09/28 07:35:15;;;;;;;4.13;1.00;;;10.90;99.90;;;;;;6012929;23;20046;-76
2022/09/28 07:38:20;;;;;;;3.80;1.27;;;11.00;99.90;;;;;;6071702;23;20003;-74
2022/09/28 07:41:20;;;;;;;4.35;1.20;;;11.20;99.90;;;;;;6074541;23;20062;-74
2022/09/28 07:43:54;;;;;;;3.00;0.95;;;11.30;99.90;;;;;;6077139;23;20057;-75
2022/09/28 07:46:26;;;;;;;3.38;1.05;;;11.30;99.90;;;;;;6077512;23;20050;-74
2022/09/28 07:49:04;;;;;;;4.72;1.10;;;11.40;99.90;;;;;;6078088;23;20194;-74
2022/09/28 07:51:36;;;;;;;5.53;1.10;;;11.50;99.90;;;;;;6078288;23;20009;-74
2022/09/28 07:57:46;;;;;;;3.83;1.00;;;11.70;99.90;;;;;;6055149;23;20006;-74
2022/09/28 08:00:38;;;;;;;3.60;1.10;;;11.90;99.90;;;;;;6081844;23;20089;-74
2022/09/28 08:03:21;;;;;;;5.75;1.25;;;12.10;99.90;;;;;;6075632;23;20316;-73
2022/09/28 08:06:08;;;;;;;3.92;1.08;;;12.20;99.90;;;;;;6184418;22;20007;-74
2022/09/28 08:08:44;;;;;;;4.43;1.15;;;12.20;99.90;;;;;;6256700;22;20046;-75
2022/09/28 08:11:22;;;;;;;3.55;0.95;;;12.30;99.90;;;;;;6284285;22;20018;-77
2022/09/28 08:14:12;;;;;;;3.75;1.17;;;12.30;99.90;;;;;;6286072;22;20038;-74
2022/09/28 08:17:22;;;;;;;4.75;1.00;;;12.40;99.90;;;;;;6258186;22;20057;-75
2022/09/28 08:23:10;;;;;;;4.05;1.27;;;12.40;99.90;;;;;;6286249;22;20049;-75
2022/09/28 08:25:45;;;;;;;5.15;1.38;;;12.40;99.90;;;;;;6233280;22;20030;-75
2022/09/28 08:28:18;;;;;;;4.20;1.30;;;12.40;99.90;;;;;;6281698;22;20011;-73
2022/09/28 08:30:53;;;;;;;3.17;1.10;;;12.50;99.90;;;;;;6258658;22;20262;-73
2022/09/28 08:33:25;;;;;;;2.90;1.02;;;12.60;99.90;;;;;;6260422;22;20004;-73
2022/09/28 08:36:21;;;;;;;2.75;1.00;;;12.90;99.90;;;;;;6285232;22;20050;-74
2022/09/28 08:39:07;;;;;;;4.05;1.00;;;13.10;99.90;;;;;;6191604;23;20009;-72
2022/09/28 08:42:30;;;;;;;6.20;1.10;;;13.30;99.90;;;;;;6191065;23;20056;-74
2022/09/28 08:45:43;;;;;;;4.18;0.98;;;13.30;99.90;;;;;;6275826;22;20058;-74
2022/09/28 08:48:44;;;;;;;3.45;1.00;;;13.50;99.90;;;;;;6285432;22;20012;-73
2022/09/28 08:52:15;;;;;;;2.58;1.02;;;13.40;99.90;;;;;;6286074;22;20049;-73
2022/09/28 08:55:10;;;;;;;5.55;0.98;;;13.20;99.90;;;;;;6283799;22;20008;-73
2022/09/28 08:58:27;;;;;;;3.72;1.10;;;13.10;99.90;;;;;;6257959;22;20304;-72
2022/09/28 09:01:17;;;;;;;3.60;0.70;;;12.90;99.90;;;;;;6283190;22;20004;-74
2022/09/28 09:03:46;;;;;;;4.82;1.25;;;12.70;99.90;;;;;;6232901;22;19995;-73
2022/09/28 09:07:03;;;;;;;4.03;0.95;;;12.70;99.90;;;;;;6256744;22;20007;-74
2022/09/28 09:10:21;;;;;;;5.93;1.10;;;12.60;99.90;;;;;;6257930;22;20030;-74
2022/09/28 09:13:30;;;;;;;5.23;1.40;;;12.80;99.90;;;;;;6253451;22;20003;-73
2022/09/28 09:15:58;;;;;;;5.10;1.25;;;13.00;99.90;;;;;;6257918;22;20530;-74
2022/09/28 09:19:10;;;;;;;2.60;0.95;;;13.30;99.90;;;;;;6261459;22;20019;-74
2022/09/28 09:22:08;;;;;;;3.40;0.90;;;13.50;99.90;;;;;;6256788;22;20004;-73
2022/09/28 09:25:23;;;;;;;5.25;0.85;;;13.60;99.90;;;;;;6201262;23;20080;-72
2022/09/28 09:28:22;;;;;;;2.67;0.90;;;13.60;99.90;;;;;;6240575;23;20023;-74
2022/09/28 09:30:50;;;;;;;6.60;1.65;;;13.60;99.90;;;;;;6226731;23;20008;-72
2022/09/28 09:33:54;;;;;;;3.30;1.08;;;13.80;99.90;;;;;;6252422;23;20004;-73
2022/09/28 09:37:04;;;;;;;5.40;1.00;;;13.90;99.90;;;;;;6253621;23;20205;-73
2022/09/28 09:44:06;;;;;;;3.00;1.08;;;13.90;99.90;;;;;;6161072;23;20068;-74
2022/09/28 09:47:41;;;;;;;3.47;1.05;;;13.90;99.90;;;;;;6207901;23;20008;-74
2022/09/28 09:51:02;;;;;;;6.68;1.42;;;13.90;99.90;;;;;;6249322;23;20011;-72
2022/09/28 09:53:50;;;;;;;4.28;1.30;;;13.90;99.90;;;;;;6251506;23;20028;-72
2022/09/28 09:56:35;;;;;;;3.00;0.95;;;13.90;99.90;;;;;;6226664;23;20270;-72
2022/09/28 09:59:54;;;;;;;5.88;1.00;;;14.20;99.90;;;;;;6253117;23;20095;-74
2022/09/28 10:03:05;;;;;;;3.53;1.25;;;14.30;99.90;;;;;;6230972;23;20044;-74
2022/09/28 10:06:26;;;;;;;3.15;0.98;;;14.40;99.90;;;;;;6248873;23;20356;-72
2022/09/28 10:09:11;;;;;;;3.22;1.00;;;14.40;99.90;;;;;;6251471;23;20247;-73
2022/09/28 10:11:56;;;;;;;4.20;1.35;;;14.40;99.90;;;;;;6252688;23;20095;-74
2022/09/28 10:14:56;;;;;;;5.20;1.15;;;14.20;99.90;;;;;;6252348;23;20071;-74
2022/09/28 10:17:26;;;;;;;3.17;1.20;;;14.60;99.90;;;;;;6226135;23;20290;-75
2022/09/28 10:20:15;;;;;;;2.90;0.90;;;15.00;99.90;;;;;;6170839;23;20359;-74
2022/09/28 10:23:16;;;;;;;5.20;1.25;;;14.90;99.80;;;;;;6172689;23;20040;-74
2022/09/28 10:25:49;;;;;;;4.70;1.20;;;14.90;99.70;;;;;;6165064;23;20223;-74
2022/09/28 10:28:52;;;;;;;5.63;1.15;;;15.10;99.90;;;;;;6165316;23;20010;-74
2022/09/28 10:31:50;;;;;;;4.97;1.10;;;15.00;99.20;;;;;;6136115;23;20032;-75
2022/09/28 10:34:40;;;;;;;4.18;0.90;;;15.10;99.10;;;;;;6191443;23;20005;-75
2022/09/28 10:37:26;;;;;;;3.75;1.25;;;15.10;97.90;;;;;;6198606;23;20009;-72
2022/09/28 10:40:42;;;;;;;2.83;1.08;;;15.20;98.00;;;;;;6166780;23;20009;-76
2022/09/28 10:43:29;;;;;;;4.18;1.00;;;14.80;97.70;;;;;;6166399;23;20005;-72
2022/09/28 10:46:23;;;;;;;2.92;0.75;;;14.80;96.70;;;;;;6141669;23;20027;-71
2022/09/28 10:49:08;;;;;;;3.30;0.90;;;14.60;96.40;;;;;;6215814;23;20005;-71
2022/09/28 10:51:57;;;;;;;4.13;0.85;;;14.60;96.30;;;;;;6214268;23;20072;-73
2022/09/28 10:54:32;;;;;;;4.72;1.42;;;14.60;96.60;;;;;;6227206;23;20004;-71
2022/09/28 10:57:02;;;;;;;4.45;1.33;;;15.00;96.50;;;;;;6250404;23;20004;-72
2022/09/28 10:59:57;;;;;;;5.07;1.00;;;15.10;95.40;;;;;;6231172;23;20063;-73
2022/09/28 11:02:34;;;;;;;5.18;1.00;;;15.20;95.30;;;;;;6253533;23;20020;-73
2022/09/28 11:05:19;;;;;;;5.00;1.10;;;15.20;95.70;;;;;;6205301;23;20023;-73
2022/09/28 11:07:46;;;;;;;3.72;0.90;;;15.50;94.80;;;;;;6204966;23;20058;-75
2022/09/28 11:10:26;;;;;;;2.70;0.70;;;15.50;94.80;;;;;;6228554;23;20034;-76
2022/09/28 11:12:56;;;;;;;3.90;1.10;;;15.70;94.50;;;;;;6229383;23;20362;-73
2022/09/28 11:15:30;;;;;;;4.13;0.90;;;15.70;93.90;;;;;;6254928;23;20004;-75
2022/09/28 11:18:21;;;;;;;2.80;0.75;;;15.60;93.90;;;;;;6255857;23;20048;-71
2022/09/28 11:20:49;;;;;;;5.00;1.10;;;15.40;94.20;;;;;;6204594;23;20004;-74
2022/09/28 11:23:34;;;;;;;2.87;0.90;;;15.50;94.20;;;;;;6242398;22;20050;-74
2022/09/28 11:26:13;;;;;;;5.15;0.95;;;15.40;94.40;;;;;;6263400;22;20475;-72
2022/09/28 11:28:41;;;;;;;3.03;0.75;;;15.50;93.60;;;;;;6285048;22;20007;-72
2022/09/28 11:31:36;;;;;;;4.05;0.90;;;15.30;93.80;;;;;;6259970;22;20007;-73
2022/09/28 11:34:36;;;;;;;3.40;0.90;;;15.40;94.60;;;;;;6286382;22;20094;-73
2022/09/28 11:37:10;;;;;;;4.50;1.10;;;16.10;94.00;;;;;;6286319;22;20022;-74
2022/09/28 11:40:24;;;;;;;2.50;1.10;;;16.20;93.20;;;;;;6284037;22;20008;-77
2022/09/28 11:43:39;;;;;;;4.65;0.73;;;16.50;92.50;;;;;;6114201;22;20064;-76
2022/09/28 11:46:29;;;;;;;4.75;1.13;;;16.80;93.40;;;;;;6132939;23;20010;-74
2022/09/28 11:49:36;;;;;;;3.60;0.90;;;17.40;92.10;;;;;;6129978;23;20029;-75
2022/09/28 11:52:18;;;;;;;3.50;0.85;;;17.60;91.20;;;;;;6021207;23;20012;-75
2022/09/28 11:54:53;;;;;;;2.08;0.70;;;18.00;90.20;;;;;;6109071;23;20006;-75
2022/09/28 11:57:34;;;;;;;2.90;0.60;;;18.20;89.10;;;;;;6108213;23;20018;-74
2022/09/28 12:00:09;;;;;;;2.40;0.63;;;18.00;88.20;;;;;;6108754;23;20248;-75
2022/09/28 12:03:10;;;;;;;2.67;0.73;;;17.80;89.60;;;;;;6108179;23;20033;-75
2022/09/28 12:06:03;;;;;;;2.53;0.60;;;18.30;87.80;;;;;;6133330;23;20009;-75
2022/09/28 12:08:53;;;;;;;3.55;0.90;;;18.80;86.50;;;;;;6132212;23;20018;-73
2022/09/28 12:12:18;;;;;;;2.45;0.70;;;19.80;86.00;;;;;;6109826;23;20023;-74
2022/09/28 12:15:02;;;;;;;3.03;0.70;;;20.10;81.70;;;;;;6133442;23;20005;-73
2022/09/28 12:17:49;;;;;;;2.60;0.50;;;19.60;81.60;;;;;;6133956;23;20013;-74
2022/09/28 12:20:45;;;;;;;3.25;0.60;;;19.10;82.60;;;;;;6109547;23;20041;-74
2022/09/28 12:23:33;;;;;;;2.63;0.60;;;19.10;82.80;;;;;;6203417;22;20027;-75
2022/09/28 12:26:56;;;;;;;3.17;0.60;;;19.40;82.70;;;;;;6286200;22;20018;-73
2022/09/28 12:30:28;;;;;;;3.88;0.63;;;19.70;82.30;;;;;;6264012;22;20113;-76
2022/09/28 12:33:08;;;;;;;2.92;0.65;;;19.80;79.00;;;;;;6285410;22;20078;-72
2022/09/28 12:35:57;;;;;;;3.78;0.60;;;19.60;78.80;;;;;;6261936;22;20000;-76
2022/09/28 12:38:37;;;;;;;3.72;0.63;;;19.80;77.00;;;;;;6260292;22;20341;-78
2022/09/28 12:41:15;;;;;;;4.43;0.75;;;19.80;75.80;;;;;;6284917;22;20322;-73
2022/09/28 12:44:20;;;;;;;2.78;0.70;;;20.00;76.40;;;;;;6234139;22;19999;-75
2022/09/28 12:47:34;;;;;;;3.30;0.63;;;19.40;76.10;;;;;;6258599;22;20004;-74
2022/09/28 12:51:02;;;;;;;2.92;0.60;;;20.20;75.50;;;;;;6256921;22;20004;-73
2022/09/28 12:53:58;;;;;;;2.65;0.50;;;20.10;75.40;;;;;;6133939;23;20005;-73
2022/09/28 12:56:43;;;;;;;3.42;0.70;;;19.70;73.90;;;;;;6109999;23;20022;-75
2022/09/28 12:59:37;;;;;;;2.95;0.60;;;19.00;75.60;;;;;;6229327;22;20015;-75
2022/09/28 13:02:17;;;;;;;2.80;0.43;;;18.60;75.80;;;;;;6259031;22;20004;-73
2022/09/28 13:04:58;;;;;;;2.80;0.80;;;18.30;76.20;;;;;;6259042;22;20011;-72
2022/09/28 13:07:54;;;;;;;2.45;0.50;;;17.80;76.00;;;;;;6259068;22;20312;-73
2022/09/28 13:10:35;;;;;;;2.90;0.68;;;17.50;77.70;;;;;;6271304;22;20014;-75
2022/09/28 13:13:40;;;;;;;2.58;0.60;;;17.40;77.30;;;;;;6259667;22;19999;-76
2022/09/28 13:16:33;;;;;;;1.45;0.30;;;17.40;78.10;;;;;;6258758;22;20004;-77
2022/09/28 13:19:27;;;;;;;1.50;0.60;;;18.00;77.00;;;;;;6259564;22;20003;-76
2022/09/28 13:21:55;;;;;;;1.67;0.50;;;18.00;76.40;;;;;;6285408;22;20023;-74
2022/09/28 13:24:32;;;;;;;1.83;0.43;;;17.80;75.90;;;;;;6259316;22;20003;-75
2022/09/28 13:27:06;;;;;;;3.10;0.60;;;17.70;76.30;;;;;;6286289;22;20059;-76
2022/09/28 13:29:33;;;;;;;2.90;0.40;;;17.80;77.10;;;;;;6267742;22;20008;-73
2022/09/28 13:32:02;;;;;;;3.08;0.60;;;18.60;77.00;;;;;;6260805;22;20010;-75
2022/09/28 13:34:32;;;;;;;2.20;0.50;;;18.30;74.70;;;;;;6284912;22;19999;-75
2022/09/28 13:37:24;;;;;;;2.70;0.55;;;17.70;76.60;;;;;;6258371;22;20167;-74
2022/09/28 13:39:55;;;;;;;4.05;0.52;;;17.80;77.00;;;;;;6258510;22;20049;-75
2022/09/28 13:42:35;;;;;;;2.42;0.50;;;18.10;77.20;;;;;;6278217;22;20127;-75
2022/09/28 13:45:22;;;;;;;2.63;0.60;;;18.30;75.40;;;;;;6228417;23;20008;-73
2022/09/28 13:48:17;;;;;;;2.73;0.60;;;17.90;76.10;;;;;;6201698;23;20209;-74
2022/09/28 13:50:43;;;;;;;4.63;0.60;;;18.30;75.90;;;;;;6191318;23;20416;-74
2022/09/28 13:53:34;;;;;;;4.53;0.52;;;18.10;75.20;;;;;;6192439;23;20001;-75
2022/09/28 13:56:17;;;;;;;3.10;0.60;;;17.80;76.60;;;;;;6216709;23;20028;-75
2022/09/28 13:58:49;;;;;;;1.90;0.50;;;18.20;78.60;;;;;;6191849;23;20012;-78
2022/09/28 14:01:27;;;;;;;3.03;0.52;;;18.50;76.90;;;;;;6167608;23;20009;-77
2022/09/28 14:04:14;;;;;;;3.75;0.60;;;18.80;75.70;;;;;;6217647;23;20024;-76
2022/09/28 14:06:48;;;;;;;1.85;0.43;;;19.10;75.10;;;;;;6217267;23;20005;-76
2022/09/28 14:09:16;;;;;;;2.58;0.73;;;19.20;73.40;;;;;;6192671;23;20012;-76
2022/09/28 14:12:02;;;;;;;3.58;0.60;;;18.70;74.90;;;;;;6214485;23;20234;-73
2022/09/28 14:14:53;;;;;;;2.88;0.60;;;18.80;74.20;;;;;;6165039;23;20012;-73
2022/09/28 14:17:22;;;;;;;4.40;0.93;;;18.40;74.90;;;;;;6190026;23;20005;-74
2022/09/28 14:19:55;;;;;;;3.55;0.70;;;18.30;74.70;;;;;;6188848;23;20024;-79
2022/09/28 14:22:41;;;;;;;2.03;0.60;;;18.40;74.70;;;;;;6189564;23;20005;-75
2022/09/28 14:25:22;;;;;;;2.10;0.55;;;18.40;74.70;;;;;;6189900;23;20060;-73
2022/09/28 14:27:47;;;;;;;1.88;0.40;;;18.60;74.30;;;;;;6217712;22;20003;-75
2022/09/28 14:30:13;;;;;;;2.17;0.50;;;18.60;73.90;;;;;;6282700;22;20008;-75
2022/09/28 14:32:44;;;;;;;3.03;0.70;;;18.90;75.20;;;;;;6280699;22;20071;-74
2022/09/28 14:35:45;;;;;;;3.17;0.90;;;18.70;73.60;;;;;;6283075;22;20000;-75
2022/09/28 14:41:24;;;;;;;2.03;0.55;;;18.80;74.40;;;;;;6256570;22;20011;-76
2022/09/28 14:43:49;;;;;;;2.45;0.90;;;19.20;74.50;;;;;;6255733;22;20075;-74
2022/09/28 14:46:18;;;;;;;4.30;0.80;;;19.50;73.80;;;;;;6284428;22;20026;-78
2022/09/28 14:48:56;;;;;;;2.45;0.70;;;19.80;72.00;;;;;;6257604;22;20004;-76
2022/09/28 14:51:32;;;;;;;2.78;0.73;;;19.40;72.60;;;;;;6285362;22;20023;-75
2022/09/28 14:54:10;;;;;;;3.97;0.55;;;19.40;72.30;;;;;;6257638;22;20003;-76
2022/09/28 14:56:42;;;;;;;3.50;0.57;;;19.50;71.80;;;;;;6232436;22;20004;-77
2022/09/28 14:59:21;;;;;;;2.05;0.50;;;19.60;70.60;;;;;;6285171;22;20026;-76
2022/09/28 15:01:59;;;;;;;1.75;0.50;;;19.50;70.50;;;;;;6258581;22;20281;-74
2022/09/28 15:04:28;;;;;;;2.58;0.70;;;18.40;71.90;;;;;;6286113;22;20310;-73
2022/09/28 15:06:54;;;;;;;1.70;0.60;;;18.20;74.80;;;;;;6282670;22;20185;-76
2022/09/28 15:09:33;;;;;;;3.60;0.65;;;18.60;73.10;;;;;;6257862;22;20046;-72
2022/09/28 15:12:11;;;;;;;2.60;0.52;;;18.80;73.70;;;;;;6284768;22;20059;-78
2022/09/28 15:15:04;;;;;;;2.72;0.60;;;19.30;72.10;;;;;;6283962;22;20103;-74
2022/09/28 15:17:40;;;;;;;3.08;0.60;;;19.00;72.20;;;;;;6219911;22;20007;-75
2022/09/28 15:20:33;;;;;;;2.65;0.60;;;18.50;72.00;;;;;;6289656;22;20067;-74
2022/09/28 15:22:59;;;;;;;4.18;0.47;;;18.30;74.90;;;;;;6261282;22;20018;-73
2022/09/28 15:25:28;;;;;;;3.15;0.70;;;18.70;74.10;;;;;;6289292;22;20016;-73
2022/09/28 15:28:21;;;;;;;4.63;0.70;;;19.20;72.50;;;;;;6288264;22;20047;-73
2022/09/28 15:30:46;;;;;;;1.45;0.30;;;19.30;71.00;;;;;;6284130;22;20007;-75
2022/09/28 15:36:38;;;;;;;1.90;0.70;;;19.20;70.30;;;;;;6256519;22;20454;-74
2022/09/28 15:39:04;;;;;;;3.88;0.73;;;19.40;72.00;;;;;;6231911;22;20066;-75
2022/09/28 15:41:30;;;;;;;3.72;0.55;;;19.60;72.30;;;;;;6284908;22;20007;-73
2022/09/28 15:44:10;;;;;;;2.17;0.40;;;19.60;70.20;;;;;;6283643;22;20004;-76
2022/09/28 15:46:39;;;;;;;2.95;0.68;;;19.30;70.70;;;;;;6281695;22;20003;-75
2022/09/28 15:49:07;;;;;;;2.20;0.43;;;19.30;71.40;;;;;;6257086;22;20011;-74
2022/09/28 15:51:47;;;;;;;2.10;0.60;;;19.30;71.00;;;;;;6257542;22;19999;-75
2022/09/28 15:54:18;;;;;;;1.95;0.50;;;18.70;72.00;;;;;;6256713;22;20024;-73
2022/09/28 15:56:58;;;;;;;2.03;0.60;;;18.20;73.20;;;;;;6283282;22;20015;-77
2022/09/28 15:59:31;;;;;;;2.65;0.40;;;17.90;74.90;;;;;;6257418;22;20018;-75
2022/09/28 16:02:21;;;;;;;2.65;0.60;;;17.90;73.50;;;;;;6283635;22;20047;-73
2022/09/28 16:04:55;;;;;;;2.13;0.55;;;17.60;74.90;;;;;;6283488;22;20023;-72
2022/09/28 16:07:40;;;;;;;2.13;0.40;;;17.90;76.20;;;;;;6282784;22;19996;-73
2022/09/28 16:10:12;;;;;;;2.65;0.50;;;18.30;73.00;;;;;;6256874;22;20023;-74
2022/09/28 16:12:46;;;;;;;1.92;0.75;;;18.50;74.50;;;;;;6256628;22;20000;-76
2022/09/28 16:15:13;;;;;;;1.88;0.50;;;18.40;74.00;;;;;;6282541;22;20007;-74
2022/09/28 16:17:40;;;;;;;1.58;0.65;;;17.80;74.90;;;;;;6283325;22;20096;-74
2022/09/28 16:20:39;;;;;;;2.22;0.60;;;17.60;75.30;;;;;;6256719;22;20007;-74
2022/09/28 16:23:24;;;;;;;1.95;0.60;;;17.40;77.50;;;;;;6231667;22;20293;-74
2022/09/28 16:25:52;;;;;;;2.40;0.63;;;17.00;77.60;;;;;;6257331;22;20039;-75
2022/09/28 16:28:44;;;;;;;3.30;0.80;;;16.60;77.80;;;;;;6256849;22;20059;-73
2022/09/28 16:31:19;;;;;;;2.00;0.70;;;16.20;79.40;;;;;;6231041;22;20004;-72
2022/09/28 16:33:57;;;;;;;1.48;0.52;;;15.80;81.80;;;;;;6230950;22;19999;-73
2022/09/28 16:36:26;;;;;;;3.72;0.70;;;15.60;83.30;;;;;;6281341;22;20293;-72
2022/09/28 16:38:53;;;;;;;1.58;0.68;;;15.40;81.60;;;;;;6230872;22;20000;-74
2022/09/28 16:41:28;;;;;;;2.95;0.73;;;15.10;83.70;;;;;;6256901;22;20000;-73
2022/09/28 16:43:59;;;;;;;2.53;0.75;;;14.80;83.90;;;;;;6282784;22;19995;-77
2022/09/28 16:46:38;;;;;;;3.03;0.85;;;14.70;84.70;;;;;;6283004;22;20000;-76
2022/09/28 16:49:04;;;;;;;;;;;14.50;85.20;;;;;;6283680;22;20215;-73
2022/09/28 16:51:33;;;;;;;3.22;0.85;;;14.40;88.10;;;;;;6281892;22;19899;-75
2022/09/28 16:57:00;;;;;;;2.85;0.70;;;14.20;87.00;;;;;;6283200;22;20000;-74
2022/09/28 16:59:37;;;;;;;4.93;0.80;;;13.90;87.00;;;;;;6231310;22;20066;-73
2022/09/28 17:02:19;;;;;;;3.28;0.82;;;13.80;87.80;;;;;;6281666;22;20071;-73
2022/09/28 17:05:16;;;;;;;5.38;1.33;;;13.60;88.70;;;;;;6282629;22;20049;-76
2022/09/28 17:07:44;;;;;;;4.97;1.00;;;13.50;89.80;;;;;;6215355;22;20201;-75
2022/09/28 17:10:25;;;;;;;3.55;1.10;;;13.20;90.00;;;;;;6283249;22;19995;-73
2022/09/28 17:12:51;;;;;;;4.85;1.50;;;13.00;90.50;;;;;;6282782;22;20003;-73
2022/09/28 17:15:20;;;;;;;4.00;1.70;;;12.80;91.10;;;;;;6284117;22;19998;-75
2022/09/28 17:17:47;;;;;;;5.28;2.80;;;12.60;92.70;;;;;;6258276;22;20006;-71
2022/09/28 17:20:19;;;;;;;4.30;2.30;;;12.50;93.60;;;;;;6283929;22;19996;-73
2022/09/28 17:22:45;;;;;;;6.35;2.25;;;12.30;94.40;;;;;;6282468;22;20004;-75
2022/09/28 17:25:11;;;;;;;6.70;2.05;;;12.30;94.80;;;;;;6283723;22;20054;-73
2022/09/28 17:27:41;;;;;;;3.92;1.67;;;12.10;95.50;;;;;;6283416;22;20019;-73
2022/09/28 17:30:10;;;;;;;6.05;2.88;;;12.10;96.00;;;;;;6283197;22;20010;-74
2022/09/28 17:32:36;;;;;;;6.20;2.90;;;12.00;96.30;;;;;;6283367;22;20063;-74
2022/09/28 17:35:04;;;;;;;4.75;1.92;;;12.00;97.30;;;;;;6256783;22;20060;-74
2022/09/28 17:37:33;;;;;;;6.07;1.70;;;12.00;97.00;;;;;;6285054;22;20170;-74
2022/09/28 17:39:59;;;;;;;;;;;12.00;97.20;;;;;;6289009;22;20000;-73
2022/09/28 17:42:24;;;;;;;4.57;1.70;;;11.90;96.90;;;;;;6262195;22;19953;-72
2022/09/28 17:44:50;;;;;;;6.45;2.40;;;11.80;96.80;;;;;;6262856;22;20020;-75
2022/09/28 17:47:16;;;;;;;7.85;2.53;;;11.70;97.10;;;;;;6290195;22;20007;-70
2022/09/28 17:49:44;;;;;;;7.70;2.80;;;11.50;97.60;;;;;;6291421;22;20061;-76
2022/09/28 17:52:09;;;;;;;7.93;3.28;;;11.50;97.90;;;;;;6283295;22;20045;-74
2022/09/28 17:54:35;;;;;;;6.82;2.88;;;11.40;98.00;;;;;;6282608;22;20000;-73
2022/09/28 17:57:04;;;;;;;6.85;2.70;;;11.30;97.90;;;;;;6255230;22;20015;-74
2022/09/28 17:59:30;;;;;;;6.22;2.60;;;11.20;98.50;;;;;;6282836;22;20035;-72
2022/09/28 18:02:02;;;;;;;6.70;2.80;;;11.20;98.80;;;;;;6282477;22;20278;-72
2022/09/28 18:04:28;;;;;;;7.57;2.60;;;11.10;98.80;;;;;;6283039;22;20011;-75
2022/09/28 18:06:54;;;;;;;6.95;3.15;;;11.00;99.60;;;;;;6281710;22;20042;-72
2022/09/28 18:09:23;;;;;;;9.57;2.33;;;10.90;99.70;;;;;;6282474;22;20003;-73
2022/09/28 18:11:51;;;;;;;8.45;3.00;;;10.90;99.90;;;;;;6282070;22;20473;-72
2022/09/28 18:14:17;;;;;;;5.38;2.28;;;10.90;99.90;;;;;;6282535;22;19999;-74
2022/09/28 18:16:44;;;;;;;8.20;2.75;;;10.80;99.90;;;;;;6282619;22;20007;-73
2022/09/28 18:19:10;;;;;;;8.52;2.22;;;10.70;99.90;;;;;;6256651;22;20050;-75
2022/09/28 18:21:35;;;;;;;5.47;2.22;;;10.70;99.90;;;;;;6282181;22;20059;-74
2022/09/28 18:24:01;;;;;;;6.45;2.78;;;10.70;99.90;;;;;;6282496;22;20015;-72
2022/09/28 18:26:27;;;;;;;7.50;2.50;;;10.70;99.90;;;;;;6282679;22;20038;-73
2022/09/28 18:28:53;;;;;;;9.73;5.07;;;10.60;99.90;;;;;;6282073;22;20051;-74
2022/09/28 18:31:19;;;;;;;9.90;4.50;;;10.60;99.90;;;;;;6283046;22;20149;-73
2022/09/28 18:33:47;;;;;;;4.53;2.92;;;10.50;99.90;;;;;;6282757;22;19999;-74
2022/09/28 18:36:13;;;;;;;5.85;2.83;;;10.50;99.90;;;;;;6255920;22;19992;-73
2022/09/28 18:38:38;;;;;;;7.97;3.17;;;10.40;99.90;;;;;;6255148;22;19995;-74
2022/09/28 18:41:14;;;;;;;6.43;3.30;;;10.40;99.90;;;;;;6282909;22;20232;-73
2022/09/28 18:43:41;;;;;;;8.75;3.10;;;10.40;99.90;;;;;;6281044;22;19999;-73
2022/09/28 18:46:08;;;;;;;6.63;2.75;;;10.30;99.90;;;;;;6283235;22;20246;-75
2022/09/28 18:48:35;;;;;;;10.90;3.25;;;10.30;99.90;;;;;;6283161;22;20000;-75
2022/09/28 18:51:01;;;;;;;6.88;2.90;;;10.30;99.90;;;;;;6283090;22;20046;-75
2022/09/28 18:53:29;;;;;;;7.72;2.90;;;10.30;99.90;;;;;;6282861;22;20059;-73
2022/09/28 18:55:56;;;;;;;6.43;2.93;;;10.30;99.90;;;;;;6282442;22;19995;-73
2022/09/28 18:58:22;;;;;;;6.53;2.80;;;10.30;99.90;;;;;;6282982;22;20098;-71
2022/09/28 19:00:47;;;;;;;5.78;2.70;;;10.20;99.90;;;;;;6282579;22;19999;-74
2022/09/28 19:03:14;;;;;;;8.68;2.50;;;10.20;99.90;;;;;;6283107;22;20173;-74
2022/09/28 19:05:41;;;;;;;6.32;2.63;;;10.20;99.90;;;;;;6282160;22;20297;-72
2022/09/28 19:08:06;;;;;;;5.68;2.65;;;10.20;99.90;;;;;;6281607;22;20142;-73
2022/09/28 19:10:32;;;;;;;7.05;3.13;;;10.10;99.90;;;;;;6282717;22;20003;-73
2022/09/28 19:12:58;;;;;;;6.85;3.30;;;10.20;99.90;;;;;;6280641;22;20008;-73
2022/09/28 19:15:24;;;;;;;4.93;2.30;;;10.20;99.90;;;;;;6282761;22;20039;-75
2022/09/28 19:17:50;;;;;;;7.18;2.70;;;10.20;99.90;;;;;;6282153;22;20015;-70
2022/09/28 19:20:16;;;;;;;6.35;3.15;;;10.20;99.90;;;;;;6282675;22;20035;-72
2022/09/28 19:22:43;;;;;;;5.05;2.22;;;10.10;99.90;;;;;;6254921;22;20012;-75
2022/09/28 19:25:09;;;;;;;4.90;2.60;;;10.10;99.90;;;;;;6281158;22;20301;-71
2022/09/28 19:27:35;;;;;;;6.28;2.67;;;10.00;99.90;;;;;;6281217;22;20014;-73
2022/09/28 19:30:00;;;;;;;9.25;3.97;;;10.00;99.90;;;;;;6253291;22;20057;-71
2022/09/28 19:32:28;;;;;;;7.22;3.08;;;9.90;99.90;;;;;;6256824;22;19996;-74
2022/09/28 19:34:53;;;;;;;6.28;2.70;;;9.90;99.90;;;;;;6284451;22;19999;-71
2022/09/28 19:37:22;;;;;;;6.18;2.88;;;9.90;99.90;;;;;;6283456;22;20079;-73
2022/09/28 19:39:47;;;;;;;6.38;3.10;;;9.80;99.90;;;;;;6284001;22;20000;-74
2022/09/28 19:42:13;;;;;;;5.15;2.45;;;9.80;99.90;;;;;;6284568;22;19990;-72
2022/09/28 19:44:39;;;;;;;6.85;2.72;;;9.80;99.90;;;;;;6283752;22;20268;-73
2022/09/28 19:47:08;;;;;;;7.57;2.85;;;9.90;99.90;;;;;;6283752;22;20010;-71
2022/09/28 19:49:39;;;;;;;7.80;3.00;;;9.90;99.90;;;;;;6284641;22;20445;-74
2022/09/28 19:52:14;;;;;;;8.15;2.83;;;9.80;99.90;;;;;;6284842;22;20229;-74
2022/09/28 19:54:47;;;;;;;8.10;2.63;;;9.80;99.90;;;;;;6284647;22;20000;-75
2022/09/28 19:57:13;;;;;;;6.15;2.63;;;9.80;99.90;;;;;;6284482;22;20063;-73
2022/09/28 19:59:39;;;;;;;6.85;2.33;;;9.80;99.90;;;;;;6284730;22;20004;-72
2022/09/28 20:02:06;;;;;;;8.23;2.50;;;9.80;99.90;;;;;;6284874;22;20007;-72
2022/09/28 20:04:32;;;;;;;4.85;2.30;;;9.80;99.90;;;;;;6285107;22;20071;-73
2022/09/28 20:06:57;;;;;;;5.57;2.33;;;9.80;99.90;;;;;;6284276;22;20000;-75
2022/09/28 20:09:23;;;;;;;5.82;2.90;;;9.70;99.90;;;;;;6284349;22;20003;-74
2022/09/28 20:11:50;;;;;;;6.13;2.90;;;9.70;99.90;;;;;;6284606;22;20304;-74
2022/09/28 20:14:17;;;;;;;5.32;2.95;;;9.60;99.90;;;;;;6285179;22;19988;-73
2022/09/28 20:16:44;;;;;;;7.45;3.03;;;9.50;99.90;;;;;;6285123;22;20213;-72
2022/09/28 20:19:11;;;;;;;9.35;3.00;;;9.50;99.90;;;;;;6285421;22;20030;-73
2022/09/28 20:21:37;;;;;;;6.28;2.65;;;9.50;99.90;;;;;;6258102;22;20027;-72
2022/09/28 20:24:03;;;;;;;5.40;2.67;;;9.50;99.90;;;;;;6284035;22;20015;-73
2022/09/28 20:26:36;;;;;;;5.80;2.33;;;9.50;99.90;;;;;;6285142;22;20059;-73